sensor_id;sensor_type;location;lat;lon;timestamp;pressure;altitude;pressure_sealevel;temperature;humidity
14838;BME280;7510;59.296;18.106;2022-11-27T00:01:57;102318.28;;;17.27;38.76
14838;BME280;7510;59.296;18.106;2022-11-27T00:04:22;102313.28;;;16.78;39.39
14838;BME280;7510;59.296;18.106;2022-11-27T00:06:48;102307.66;;;17.65;37.79
14838;BME280;7510;59.296;18.106;2022-11-27T00:09:14;102309.72;;;17.58;38.29
14838;BME280;7510;59.296;18.106;2022-11-27T00:11:40;102314.06;;;18.10;37.56
14838;BME280;7510;59.296;18.106;2022-11-27T00:14:09;102284.72;;;17.66;38.09
14838;BME280;7510;59.296;18.106;2022-11-27T00:16:35;102297.28;;;17.05;39.24
14838;BME280;7510;59.296;18.106;2022-11-27T00:19:00;102306.56;;;15.63;42.25
14838;BME280;7510;59.296;18.106;2022-11-27T00:21:29;102302.81;;;17.44;38.84
14838;BME280;7510;59.296;18.106;2022-11-27T00:23:56;102294.00;;;16.50;40.08
14838;BME280;7510;59.296;18.106;2022-11-27T00:26:23;102296.19;;;17.40;38.88
14838;BME280;7510;59.296;18.106;2022-11-27T00:28:49;102294.56;;;17.67;38.13
14838;BME280;7510;59.296;18.106;2022-11-27T00:31:41;102297.00;;;17.18;38.82
14838;BME280;7510;59.296;18.106;2022-11-27T00:34:09;102295.50;;;17.10;39.30
14838;BME280;7510;59.296;18.106;2022-11-27T00:36:35;102285.13;;;16.78;39.66
14838;BME280;7510;59.296;18.106;2022-11-27T00:39:02;102300.47;;;17.36;38.98
14838;BME280;7510;59.296;18.106;2022-11-27T00:41:28;102300.69;;;17.46;38.85
14838;BME280;7510;59.296;18.106;2022-11-27T00:43:55;102294.19;;;17.36;38.83
14838;BME280;7510;59.296;18.106;2022-11-27T00:46:26;102292.38;;;17.18;39.18
14838;BME280;7510;59.296;18.106;2022-11-27T00:48:52;102225.75;;;17.08;38.93
14838;BME280;7510;59.296;18.106;2022-11-27T00:51:20;102284.44;;;17.79;38.17
14838;BME280;7510;59.296;18.106;2022-11-27T00:53:46;102295.47;;;17.22;39.22
14838;BME280;7510;59.296;18.106;2022-11-27T00:56:17;102285.25;;;16.94;39.37
14838;BME280;7510;59.296;18.106;2022-11-27T00:58:43;102288.59;;;16.73;40.11
14838;BME280;7510;59.296;18.106;2022-11-27T01:04:14;102252.56;;;17.73;38.26
14838;BME280;7510;59.296;18.106;2022-11-27T01:06:40;102281.28;;;17.59;38.39
14838;BME280;7510;59.296;18.106;2022-11-27T01:09:06;102287.41;;;17.38;38.80
14838;BME280;7510;59.296;18.106;2022-11-27T01:11:34;102269.25;;;17.09;39.42
14838;BME280;7510;59.296;18.106;2022-11-27T01:14:03;102292.03;;;17.38;38.96
14838;BME280;7510;59.296;18.106;2022-11-27T01:16:31;102269.97;;;17.67;38.38
14838;BME280;7510;59.296;18.106;2022-11-27T01:18:58;102261.78;;;17.95;37.87
14838;BME280;7510;59.296;18.106;2022-11-27T01:21:26;102285.16;;;18.02;37.68
14838;BME280;7510;59.296;18.106;2022-11-27T01:23:52;102290.34;;;18.15;37.38
14838;BME280;7510;59.296;18.106;2022-11-27T01:26:18;102277.56;;;17.03;39.68
14838;BME280;7510;59.296;18.106;2022-11-27T01:28:44;102281.34;;;17.02;39.59
14838;BME280;7510;59.296;18.106;2022-11-27T01:31:15;102283.94;;;17.20;39.42
14838;BME280;7510;59.296;18.106;2022-11-27T01:33:42;102293.94;;;17.26;39.33
14838;BME280;7510;59.296;18.106;2022-11-27T01:36:09;102294.84;;;17.65;38.76
14838;BME280;7510;59.296;18.106;2022-11-27T01:38:36;102289.97;;;17.56;38.63
14838;BME280;7510;59.296;18.106;2022-11-27T01:41:04;102290.31;;;17.59;38.90
14838;BME280;7510;59.296;18.106;2022-11-27T01:46:39;102283.31;;;17.91;38.16
14838;BME280;7510;59.296;18.106;2022-11-27T01:51:55;102289.78;;;16.77;40.43
14838;BME280;7510;59.296;18.106;2022-11-27T01:54:26;102280.22;;;17.60;39.00
14838;BME280;7510;59.296;18.106;2022-11-27T01:56:55;102281.88;;;18.17;38.10
14838;BME280;7510;59.296;18.106;2022-11-27T01:59:23;102280.22;;;17.48;39.22
14838;BME280;7510;59.296;18.106;2022-11-27T02:01:48;102285.06;;;17.30;39.52
14838;BME280;7510;59.296;18.106;2022-11-27T02:04:14;102271.59;;;18.07;38.22
14838;BME280;7510;59.296;18.106;2022-11-27T02:06:39;102282.03;;;18.10;38.33
14838;BME280;7510;59.296;18.106;2022-11-27T02:09:05;102289.53;;;17.87;38.79
14838;BME280;7510;59.296;18.106;2022-11-27T02:17:31;102273.91;;;17.99;38.32
14838;BME280;7510;59.296;18.106;2022-11-27T02:23:10;102287.69;;;18.31;38.10
14838;BME280;7510;59.296;18.106;2022-11-27T02:31:56;102287.75;;;18.36;37.61
14838;BME280;7510;59.296;18.106;2022-11-27T02:40:04;102303.00;;;17.77;38.61
14838;BME280;7510;59.296;18.106;2022-11-27T02:42:44;102301.53;;;18.25;38.34
14838;BME280;7510;59.296;18.106;2022-11-27T02:45:16;102291.38;;;18.26;37.92
14838;BME280;7510;59.296;18.106;2022-11-27T02:47:45;102313.94;;;18.60;37.30
14838;BME280;7510;59.296;18.106;2022-11-27T02:50:20;102299.91;;;18.73;37.33
14838;BME280;7510;59.296;18.106;2022-11-27T02:52:48;102299.41;;;18.76;37.27
14838;BME280;7510;59.296;18.106;2022-11-27T02:55:16;102283.28;;;18.96;37.08
14838;BME280;7510;59.296;18.106;2022-11-27T02:57:47;102305.72;;;17.77;38.77
14838;BME280;7510;59.296;18.106;2022-11-27T03:00:15;102299.59;;;17.98;38.47
14838;BME280;7510;59.296;18.106;2022-11-27T03:02:48;102295.59;;;17.89;38.84
14838;BME280;7510;59.296;18.106;2022-11-27T03:05:17;102294.56;;;17.67;39.26
14838;BME280;7510;59.296;18.106;2022-11-27T03:08:00;102290.88;;;17.73;38.86
14838;BME280;7510;59.296;18.106;2022-11-27T03:10:53;102295.25;;;17.85;38.82
14838;BME280;7510;59.296;18.106;2022-11-27T03:13:22;102295.78;;;17.59;38.97
14838;BME280;7510;59.296;18.106;2022-11-27T03:17:15;102296.78;;;17.81;38.51
14838;BME280;7510;59.296;18.106;2022-11-27T03:21:55;102290.94;;;17.50;38.58
14838;BME280;7510;59.296;18.106;2022-11-27T03:24:22;102314.25;;;17.41;39.13
14838;BME280;7510;59.296;18.106;2022-11-27T03:26:47;102312.31;;;17.53;38.85
14838;BME280;7510;59.296;18.106;2022-11-27T03:29:20;102285.41;;;17.34;38.96
14838;BME280;7510;59.296;18.106;2022-11-27T03:31:47;102316.00;;;17.58;38.53
14838;BME280;7510;59.296;18.106;2022-11-27T03:34:14;102306.28;;;17.17;39.22
14838;BME280;7510;59.296;18.106;2022-11-27T03:36:40;102303.59;;;17.67;38.29
14838;BME280;7510;59.296;18.106;2022-11-27T03:39:09;102309.16;;;17.44;38.48
14838;BME280;7510;59.296;18.106;2022-11-27T03:41:52;102305.91;;;17.59;38.42
14838;BME280;7510;59.296;18.106;2022-11-27T03:44:34;102302.84;;;16.98;39.33
14838;BME280;7510;59.296;18.106;2022-11-27T03:47:34;102308.13;;;17.62;38.39
14838;BME280;7510;59.296;18.106;2022-11-27T04:00:35;102298.78;;;17.58;38.15
14838;BME280;7510;59.296;18.106;2022-11-27T04:03:02;102304.31;;;17.74;38.05
14838;BME280;7510;59.296;18.106;2022-11-27T04:05:28;102300.09;;;17.55;38.12
14838;BME280;7510;59.296;18.106;2022-11-27T04:07:53;102307.09;;;16.71;39.74
14838;BME280;7510;59.296;18.106;2022-11-27T04:10:19;102303.91;;;17.43;38.52
14838;BME280;7510;59.296;18.106;2022-11-27T04:12:44;102292.84;;;16.92;39.15
14838;BME280;7510;59.296;18.106;2022-11-27T04:15:10;102308.09;;;16.07;40.46
14838;BME280;7510;59.296;18.106;2022-11-27T04:17:36;102292.84;;;17.15;38.66
14838;BME280;7510;59.296;18.106;2022-11-27T04:20:01;102301.63;;;16.71;39.47
14838;BME280;7510;59.296;18.106;2022-11-27T04:22:27;102297.34;;;16.52;39.81
14838;BME280;7510;59.296;18.106;2022-11-27T04:24:53;102299.03;;;16.76;39.45
14838;BME280;7510;59.296;18.106;2022-11-27T04:27:18;102305.31;;;16.77;39.49
14838;BME280;7510;59.296;18.106;2022-11-27T04:29:43;102311.13;;;16.69;39.69
14838;BME280;7510;59.296;18.106;2022-11-27T04:32:09;102293.09;;;17.02;38.92
14838;BME280;7510;59.296;18.106;2022-11-27T04:34:35;102307.91;;;17.52;38.16
14838;BME280;7510;59.296;18.106;2022-11-27T04:37:00;102302.44;;;16.20;40.19
14838;BME280;7510;59.296;18.106;2022-11-27T04:39:26;102294.84;;;16.51;39.59
14838;BME280;7510;59.296;18.106;2022-11-27T04:41:51;102284.19;;;17.18;38.73
14838;BME280;7510;59.296;18.106;2022-11-27T04:44:17;102290.63;;;17.01;38.90
14838;BME280;7510;59.296;18.106;2022-11-27T04:46:42;102289.97;;;17.56;37.94
14838;BME280;7510;59.296;18.106;2022-11-27T04:49:09;102291.03;;;17.66;37.85
14838;BME280;7510;59.296;18.106;2022-11-27T04:51:34;102294.03;;;17.42;38.13
14838;BME280;7510;59.296;18.106;2022-11-27T04:54:00;102289.03;;;17.50;37.75
14838;BME280;7510;59.296;18.106;2022-11-27T04:56:25;102280.03;;;17.27;38.08
14838;BME280;7510;59.296;18.106;2022-11-27T04:58:51;102272.16;;;17.42;37.65
14838;BME280;7510;59.296;18.106;2022-11-27T05:01:16;102279.16;;;17.49;37.71
14838;BME280;7510;59.296;18.106;2022-11-27T05:03:46;102284.63;;;17.89;37.13
14838;BME280;7510;59.296;18.106;2022-11-27T05:06:11;102262.31;;;17.07;38.17
14838;BME280;7510;59.296;18.106;2022-11-27T05:08:37;102275.28;;;16.65;39.27
14838;BME280;7510;59.296;18.106;2022-11-27T05:11:09;102282.16;;;17.25;38.09
14838;BME280;7510;59.296;18.106;2022-11-27T05:13:35;102278.78;;;17.97;37.00
14838;BME280;7510;59.296;18.106;2022-11-27T05:16:01;102253.47;;;17.90;36.61
14838;BME280;7510;59.296;18.106;2022-11-27T05:18:26;102263.09;;;17.64;37.29
14838;BME280;7510;59.296;18.106;2022-11-27T05:20:56;102270.53;;;17.18;38.08
14838;BME280;7510;59.296;18.106;2022-11-27T05:23:22;102267.69;;;17.13;37.92
14838;BME280;7510;59.296;18.106;2022-11-27T05:25:47;102277.56;;;18.04;36.69
14838;BME280;7510;59.296;18.106;2022-11-27T05:28:13;102270.72;;;17.90;36.79
14838;BME280;7510;59.296;18.106;2022-11-27T05:30:38;102277.56;;;18.32;36.32
14838;BME280;7510;59.296;18.106;2022-11-27T05:33:04;102284.06;;;17.36;37.50
14838;BME280;7510;59.296;18.106;2022-11-27T05:35:29;102258.88;;;17.11;37.91
14838;BME280;7510;59.296;18.106;2022-11-27T05:37:54;102283.31;;;17.52;37.49
14838;BME280;7510;59.296;18.106;2022-11-27T05:40:20;102282.09;;;17.99;36.77
14838;BME280;7510;59.296;18.106;2022-11-27T05:42:45;102276.22;;;18.07;36.70
14838;BME280;7510;59.296;18.106;2022-11-27T05:45:11;102269.59;;;18.19;36.61
14838;BME280;7510;59.296;18.106;2022-11-27T05:47:36;102277.75;;;17.24;37.94
14838;BME280;7510;59.296;18.106;2022-11-27T05:50:02;102275.41;;;17.39;37.74
14838;BME280;7510;59.296;18.106;2022-11-27T05:52:27;102278.78;;;17.69;37.22
14838;BME280;7510;59.296;18.106;2022-11-27T05:54:53;102280.63;;;17.80;37.16
14838;BME280;7510;59.296;18.106;2022-11-27T05:57:20;102274.09;;;17.81;36.96
14838;BME280;7510;59.296;18.106;2022-11-27T05:59:46;102273.59;;;17.84;36.82
14838;BME280;7510;59.296;18.106;2022-11-27T06:02:11;102281.69;;;18.34;36.41
14838;BME280;7510;59.296;18.106;2022-11-27T06:04:36;102281.09;;;18.05;36.62
14838;BME280;7510;59.296;18.106;2022-11-27T06:07:02;102275.44;;;17.67;37.09
14838;BME280;7510;59.296;18.106;2022-11-27T06:09:27;102279.81;;;17.40;37.79
14838;BME280;7510;59.296;18.106;2022-11-27T06:11:53;102278.13;;;17.39;37.71
14838;BME280;7510;59.296;18.106;2022-11-27T06:14:18;102213.44;;;17.56;36.73
14838;BME280;7510;59.296;18.106;2022-11-27T06:16:44;102264.03;;;17.70;36.84
14838;BME280;7510;59.296;18.106;2022-11-27T06:19:12;102273.81;;;17.43;37.52
14838;BME280;7510;59.296;18.106;2022-11-27T06:21:41;102270.22;;;17.65;37.29
14838;BME280;7510;59.296;18.106;2022-11-27T06:24:07;102267.88;;;17.46;37.81
14838;BME280;7510;59.296;18.106;2022-11-27T06:26:33;102264.00;;;16.73;39.11
14838;BME280;7510;59.296;18.106;2022-11-27T06:28:59;102245.13;;;16.38;39.62
14838;BME280;7510;59.296;18.106;2022-11-27T06:31:28;102258.16;;;16.36;40.04
14838;BME280;7510;59.296;18.106;2022-11-27T06:33:54;102260.94;;;15.41;41.52
14838;BME280;7510;59.296;18.106;2022-11-27T06:36:26;102269.69;;;16.49;39.79
14838;BME280;7510;59.296;18.106;2022-11-27T06:38:52;102250.09;;;17.21;38.36
14838;BME280;7510;59.296;18.106;2022-11-27T06:41:20;102263.81;;;17.60;37.54
14838;BME280;7510;59.296;18.106;2022-11-27T06:43:46;102267.06;;;17.45;37.76
14838;BME280;7510;59.296;18.106;2022-11-27T06:46:15;102270.56;;;17.69;37.69
14838;BME280;7510;59.296;18.106;2022-11-27T06:48:42;102266.09;;;17.51;37.69
14838;BME280;7510;59.296;18.106;2022-11-27T06:51:11;102272.75;;;17.55;37.73
14838;BME280;7510;59.296;18.106;2022-11-27T06:53:38;102273.97;;;17.37;38.20
14838;BME280;7510;59.296;18.106;2022-11-27T06:56:05;102276.34;;;17.33;38.18
14838;BME280;7510;59.296;18.106;2022-11-27T06:58:31;102268.31;;;17.94;37.32
14838;BME280;7510;59.296;18.106;2022-11-27T07:01:01;102264.84;;;17.70;37.42
14838;BME280;7510;59.296;18.106;2022-11-27T07:03:27;102278.38;;;17.77;37.50
14838;BME280;7510;59.296;18.106;2022-11-27T07:05:53;102265.41;;;17.44;37.94
14838;BME280;7510;59.296;18.106;2022-11-27T07:08:19;102262.81;;;17.38;38.06
14838;BME280;7510;59.296;18.106;2022-11-27T07:10:44;102264.72;;;16.17;40.51
14838;BME280;7510;59.296;18.106;2022-11-27T07:13:11;102268.78;;;16.26;40.44
14838;BME280;7510;59.296;18.106;2022-11-27T07:15:36;102266.25;;;16.53;40.07
14838;BME280;7510;59.296;18.106;2022-11-27T07:18:02;102261.16;;;17.37;38.77
14838;BME280;7510;59.296;18.106;2022-11-27T07:20:28;102266.25;;;16.13;40.77
14838;BME280;7510;59.296;18.106;2022-11-27T07:22:54;102251.06;;;17.03;39.05
14838;BME280;7510;59.296;18.106;2022-11-27T07:25:19;102255.69;;;16.80;39.37
14838;BME280;7510;59.296;18.106;2022-11-27T07:27:45;102251.16;;;17.42;38.29
14838;BME280;7510;59.296;18.106;2022-11-27T07:30:11;102223.19;;;16.44;39.78
14838;BME280;7510;59.296;18.106;2022-11-27T07:32:36;102248.69;;;16.95;39.19
14838;BME280;7510;59.296;18.106;2022-11-27T07:35:02;102244.56;;;16.18;40.51
14838;BME280;7510;59.296;18.106;2022-11-27T07:37:31;102238.75;;;16.89;39.39
14838;BME280;7510;59.296;18.106;2022-11-27T07:39:57;102245.25;;;17.00;39.34
14838;BME280;7510;59.296;18.106;2022-11-27T07:42:22;102245.47;;;17.10;39.21
14838;BME280;7510;59.296;18.106;2022-11-27T07:44:48;102248.41;;;16.40;40.19
14838;BME280;7510;59.296;18.106;2022-11-27T07:47:13;102229.34;;;16.85;39.59
14838;BME280;7510;59.296;18.106;2022-11-27T07:49:39;102234.41;;;17.39;38.71
14838;BME280;7510;59.296;18.106;2022-11-27T07:52:04;102234.88;;;17.36;38.63
14838;BME280;7510;59.296;18.106;2022-11-27T07:54:30;102241.75;;;17.50;38.28
14838;BME280;7510;59.296;18.106;2022-11-27T07:56:55;102239.75;;;18.18;37.51
14838;BME280;7510;59.296;18.106;2022-11-27T07:59:21;102243.22;;;17.97;37.70
14838;BME280;7510;59.296;18.106;2022-11-27T08:01:46;102239.88;;;17.95;37.67
14838;BME280;7510;59.296;18.106;2022-11-27T08:04:12;102248.44;;;17.70;38.17
14838;BME280;7510;59.296;18.106;2022-11-27T08:06:37;102252.09;;;17.48;38.59
14838;BME280;7510;59.296;18.106;2022-11-27T08:09:02;102249.69;;;17.91;37.76
14838;BME280;7510;59.296;18.106;2022-11-27T08:11:30;102252.47;;;17.17;39.18
14838;BME280;7510;59.296;18.106;2022-11-27T08:13:59;102249.09;;;17.49;38.84
14838;BME280;7510;59.296;18.106;2022-11-27T08:16:26;102249.28;;;16.86;39.84
14838;BME280;7510;59.296;18.106;2022-11-27T08:18:52;102245.34;;;17.16;39.39
14838;BME280;7510;59.296;18.106;2022-11-27T08:21:18;102240.88;;;16.87;40.01
14838;BME280;7510;59.296;18.106;2022-11-27T08:23:44;102233.72;;;17.09;39.55
14838;BME280;7510;59.296;18.106;2022-11-27T08:26:10;102227.41;;;17.09;39.72
14838;BME280;7510;59.296;18.106;2022-11-27T08:28:37;102242.22;;;18.03;38.01
14838;BME280;7510;59.296;18.106;2022-11-27T08:31:04;102243.97;;;18.09;37.80
14838;BME280;7510;59.296;18.106;2022-11-27T08:33:30;102248.56;;;18.20;37.69
14838;BME280;7510;59.296;18.106;2022-11-27T08:35:55;102241.56;;;18.12;37.57
14838;BME280;7510;59.296;18.106;2022-11-27T08:38:21;102248.09;;;18.23;37.57
14838;BME280;7510;59.296;18.106;2022-11-27T08:41:00;102236.66;;;18.58;37.05
14838;BME280;7510;59.296;18.106;2022-11-27T08:43:27;102244.13;;;18.63;36.97
14838;BME280;7510;59.296;18.106;2022-11-27T08:45:54;102244.44;;;18.33;37.05
14838;BME280;7510;59.296;18.106;2022-11-27T08:48:24;102252.47;;;17.17;39.38
14838;BME280;7510;59.296;18.106;2022-11-27T08:50:51;102218.56;;;17.52;38.70
14838;BME280;7510;59.296;18.106;2022-11-27T08:53:17;102237.34;;;17.77;38.29
14838;BME280;7510;59.296;18.106;2022-11-27T08:55:44;102241.38;;;17.46;39.09
14838;BME280;7510;59.296;18.106;2022-11-27T08:58:09;102236.41;;;17.43;38.92
14838;BME280;7510;59.296;18.106;2022-11-27T09:00:36;102243.41;;;17.51;39.35
14838;BME280;7510;59.296;18.106;2022-11-27T09:03:02;102241.28;;;17.97;38.12
14838;BME280;7510;59.296;18.106;2022-11-27T09:05:28;102243.97;;;18.36;37.75
14838;BME280;7510;59.296;18.106;2022-11-27T09:07:54;102230.78;;;18.06;38.03
14838;BME280;7510;59.296;18.106;2022-11-27T09:10:20;102214.66;;;18.21;37.49
14838;BME280;7510;59.296;18.106;2022-11-27T09:12:47;102225.44;;;17.83;38.43
14838;BME280;7510;59.296;18.106;2022-11-27T09:15:12;102241.94;;;17.60;38.88
14838;BME280;7510;59.296;18.106;2022-11-27T09:17:38;102235.22;;;17.79;38.74
14838;BME280;7510;59.296;18.106;2022-11-27T09:20:04;102236.78;;;17.01;40.08
14838;BME280;7510;59.296;18.106;2022-11-27T09:22:30;102241.84;;;17.55;39.36
14838;BME280;7510;59.296;18.106;2022-11-27T09:24:57;102223.75;;;17.54;39.12
14838;BME280;7510;59.296;18.106;2022-11-27T09:27:22;102241.06;;;17.99;38.23
14838;BME280;7510;59.296;18.106;2022-11-27T09:29:48;102250.97;;;17.60;39.28
14838;BME280;7510;59.296;18.106;2022-11-27T09:32:14;102253.84;;;17.54;39.11
14838;BME280;7510;59.296;18.106;2022-11-27T09:34:39;102250.75;;;17.50;39.47
14838;BME280;7510;59.296;18.106;2022-11-27T09:37:05;102258.63;;;18.03;38.50
14838;BME280;7510;59.296;18.106;2022-11-27T09:39:30;102251.09;;;18.70;37.36
14838;BME280;7510;59.296;18.106;2022-11-27T09:41:59;102250.75;;;18.83;37.30
14838;BME280;7510;59.296;18.106;2022-11-27T09:44:49;102264.38;;;18.62;37.39
14838;BME280;7510;59.296;18.106;2022-11-27T09:49:50;102233.00;;;18.53;37.50
14838;BME280;7510;59.296;18.106;2022-11-27T09:57:54;102261.94;;;18.82;37.34
14838;BME280;7510;59.296;18.106;2022-11-27T10:00:22;102238.44;;;19.02;36.67
14838;BME280;7510;59.296;18.106;2022-11-27T10:02:48;102240.47;;;18.57;37.41
14838;BME280;7510;59.296;18.106;2022-11-27T10:05:25;102258.06;;;18.78;37.22
14838;BME280;7510;59.296;18.106;2022-11-27T10:08:19;102274.09;;;18.69;37.68
14838;BME280;7510;59.296;18.106;2022-11-27T10:16:37;102251.91;;;18.87;37.24
14838;BME280;7510;59.296;18.106;2022-11-27T10:21:58;102258.88;;;18.78;37.61
14838;BME280;7510;59.296;18.106;2022-11-27T10:27:27;102255.69;;;19.03;37.34
14838;BME280;7510;59.296;18.106;2022-11-27T10:29:55;102251.25;;;18.80;37.54
14838;BME280;7510;59.296;18.106;2022-11-27T10:32:27;102248.72;;;19.12;37.32
14838;BME280;7510;59.296;18.106;2022-11-27T10:40:42;102247.56;;;19.08;37.28
14838;BME280;7510;59.296;18.106;2022-11-27T10:43:23;102236.50;;;18.65;38.04
14838;BME280;7510;59.296;18.106;2022-11-27T10:45:52;102231.78;;;18.98;37.73
14838;BME280;7510;59.296;18.106;2022-11-27T10:48:19;102231.78;;;18.98;37.49
14838;BME280;7510;59.296;18.106;2022-11-27T10:50:45;102231.09;;;19.24;37.11
14838;BME280;7510;59.296;18.106;2022-11-27T10:53:33;102235.13;;;19.59;36.72
14838;BME280;7510;59.296;18.106;2022-11-27T10:59:02;102240.56;;;18.29;38.35
14838;BME280;7510;59.296;18.106;2022-11-27T11:01:41;102229.03;;;18.60;38.21
14838;BME280;7510;59.296;18.106;2022-11-27T11:04:08;102237.56;;;17.59;40.16
14838;BME280;7510;59.296;18.106;2022-11-27T11:06:45;102228.63;;;18.08;39.05
14838;BME280;7510;59.296;18.106;2022-11-27T11:09:30;102242.44;;;17.85;39.36
14838;BME280;7510;59.296;18.106;2022-11-27T11:14:52;102240.63;;;18.67;37.91
14838;BME280;7510;59.296;18.106;2022-11-27T11:17:25;102237.16;;;18.72;38.05
14838;BME280;7510;59.296;18.106;2022-11-27T11:19:51;102239.28;;;18.70;37.65
14838;BME280;7510;59.296;18.106;2022-11-27T11:22:17;102246.09;;;18.84;37.50
14838;BME280;7510;59.296;18.106;2022-11-27T11:24:48;102249.72;;;19.22;36.86
14838;BME280;7510;59.296;18.106;2022-11-27T11:29:49;102244.38;;;19.32;37.13
14838;BME280;7510;59.296;18.106;2022-11-27T11:35:22;102243.50;;;17.84;39.65
14838;BME280;7510;59.296;18.106;2022-11-27T11:37:59;102232.13;;;18.85;37.69
14838;BME280;7510;59.296;18.106;2022-11-27T11:40:29;102230.44;;;18.46;38.38
14838;BME280;7510;59.296;18.106;2022-11-27T11:43:04;102244.13;;;18.30;38.63
14838;BME280;7510;59.296;18.106;2022-11-27T11:45:33;102234.53;;;19.36;37.05
14838;BME280;7510;59.296;18.106;2022-11-27T11:48:18;102218.66;;;18.62;37.85
14838;BME280;7510;59.296;18.106;2022-11-27T11:51:03;102228.91;;;19.26;37.23
14838;BME280;7510;59.296;18.106;2022-11-27T11:53:39;102212.69;;;18.32;38.48
14838;BME280;7510;59.296;18.106;2022-11-27T11:56:36;102220.41;;;18.52;38.16
14838;BME280;7510;59.296;18.106;2022-11-27T12:04:44;102220.50;;;17.96;39.11
14838;BME280;7510;59.296;18.106;2022-11-27T12:10:03;102218.38;;;17.20;40.44
14838;BME280;7510;59.296;18.106;2022-11-27T12:23:24;102223.75;;;17.54;39.70
14838;BME280;7510;59.296;18.106;2022-11-27T12:37:42;102225.59;;;18.21;38.66
14838;BME280;7510;59.296;18.106;2022-11-27T12:45:21;102227.69;;;17.58;39.78
14838;BME280;7510;59.296;18.106;2022-11-27T12:48:00;102211.91;;;16.86;40.99
14838;BME280;7510;59.296;18.106;2022-11-27T12:53:37;102202.69;;;17.66;39.58
14838;BME280;7510;59.296;18.106;2022-11-27T12:58:55;102210.06;;;18.10;38.96
14838;BME280;7510;59.296;18.106;2022-11-27T13:01:27;102196.19;;;18.27;38.52
14838;BME280;7510;59.296;18.106;2022-11-27T13:04:16;102193.53;;;18.32;38.47
14838;BME280;7510;59.296;18.106;2022-11-27T13:06:52;102200.88;;;17.71;39.20
14838;BME280;7510;59.296;18.106;2022-11-27T13:09:26;102193.16;;;17.96;38.78
14838;BME280;7510;59.296;18.106;2022-11-27T13:11:54;102197.94;;;18.06;38.74
14838;BME280;7510;59.296;18.106;2022-11-27T13:14:23;102191.94;;;17.76;38.99
14838;BME280;7510;59.296;18.106;2022-11-27T13:17:00;102185.50;;;17.54;39.48
14838;BME280;7510;59.296;18.106;2022-11-27T13:19:47;102188.16;;;17.38;39.66
14838;BME280;7510;59.296;18.106;2022-11-27T13:22:29;102185.03;;;17.06;40.33
14838;BME280;7510;59.296;18.106;2022-11-27T13:24:59;102179.34;;;17.47;39.78
14838;BME280;7510;59.296;18.106;2022-11-27T13:27:27;102178.19;;;17.71;39.15
14838;BME280;7510;59.296;18.106;2022-11-27T13:30:04;102169.75;;;17.89;38.61
14838;BME280;7510;59.296;18.106;2022-11-27T13:32:35;102172.78;;;18.36;37.64
14838;BME280;7510;59.296;18.106;2022-11-27T13:35:05;102182.22;;;17.68;39.10
14838;BME280;7510;59.296;18.106;2022-11-27T13:37:35;102182.94;;;17.36;39.71
14838;BME280;7510;59.296;18.106;2022-11-27T13:42:28;102172.00;;;16.85;40.85
14838;BME280;7510;59.296;18.106;2022-11-27T13:45:00;102184.38;;;17.27;40.12
14838;BME280;7510;59.296;18.106;2022-11-27T13:47:29;102180.34;;;17.69;39.14
14838;BME280;7510;59.296;18.106;2022-11-27T13:50:08;102181.78;;;17.88;38.79
14838;BME280;7510;59.296;18.106;2022-11-27T13:52:35;102175.63;;;18.41;37.97
14838;BME280;7510;59.296;18.106;2022-11-27T13:55:07;102163.31;;;18.11;38.21
14838;BME280;7510;59.296;18.106;2022-11-27T13:57:34;102153.91;;;17.07;39.75
14838;BME280;7510;59.296;18.106;2022-11-27T14:00:03;102154.94;;;17.57;39.09
14838;BME280;7510;59.296;18.106;2022-11-27T14:02:50;102163.03;;;17.52;39.22
14838;BME280;7510;59.296;18.106;2022-11-27T14:05:18;102163.22;;;16.83;40.74
14838;BME280;7510;59.296;18.106;2022-11-27T14:07:47;102161.41;;;17.51;39.55
14838;BME280;7510;59.296;18.106;2022-11-27T14:10:25;102136.28;;;17.82;38.59
14838;BME280;7510;59.296;18.106;2022-11-27T14:12:57;102162.31;;;18.01;38.80
14838;BME280;7510;59.296;18.106;2022-11-27T14:15:27;102148.28;;;17.53;39.39
14838;BME280;7510;59.296;18.106;2022-11-27T14:18:17;102174.47;;;17.49;39.56
14838;BME280;7510;59.296;18.106;2022-11-27T14:23:32;102152.63;;;18.10;38.51
14838;BME280;7510;59.296;18.106;2022-11-27T14:26:26;102165.25;;;17.83;38.85
14838;BME280;7510;59.296;18.106;2022-11-27T14:28:54;102151.91;;;18.30;38.06
14838;BME280;7510;59.296;18.106;2022-11-27T14:31:29;102171.25;;;18.62;37.83
14838;BME280;7510;59.296;18.106;2022-11-27T14:33:56;102138.25;;;18.03;38.02
14838;BME280;7510;59.296;18.106;2022-11-27T14:36:27;102163.75;;;18.52;37.80
14838;BME280;7510;59.296;18.106;2022-11-27T14:38:55;102163.00;;;18.40;38.16
14838;BME280;7510;59.296;18.106;2022-11-27T14:41:23;102161.63;;;18.10;38.47
14838;BME280;7510;59.296;18.106;2022-11-27T14:44:06;102140.56;;;17.78;38.72
14838;BME280;7510;59.296;18.106;2022-11-27T14:46:38;102142.19;;;18.23;37.88
14838;BME280;7510;59.296;18.106;2022-11-27T14:49:04;102174.69;;;18.20;38.21
14838;BME280;7510;59.296;18.106;2022-11-27T14:51:31;102171.34;;;17.57;39.05
14838;BME280;7510;59.296;18.106;2022-11-27T14:54:01;102171.69;;;17.60;39.19
14838;BME280;7510;59.296;18.106;2022-11-27T14:56:31;102166.97;;;17.05;40.25
14838;BME280;7510;59.296;18.106;2022-11-27T14:58:58;102166.78;;;17.23;39.98
14838;BME280;7510;59.296;18.106;2022-11-27T15:01:27;102168.25;;;17.26;40.06
14838;BME280;7510;59.296;18.106;2022-11-27T15:06:22;102173.25;;;18.01;38.84
14838;BME280;7510;59.296;18.106;2022-11-27T15:08:48;102160.47;;;17.90;38.87
14838;BME280;7510;59.296;18.106;2022-11-27T15:11:15;102164.59;;;17.76;39.04